createdAt,value
2018-09-25T00:00:55.254Z,0.93
2018-09-25T00:03:27.697Z,0.80
2018-09-25T00:06:00.305Z,0.73
2018-09-25T00:08:33.394Z,1.10
2018-09-25T00:11:06.231Z,0.70
2018-09-25T00:13:38.870Z,0.90
2018-09-25T00:16:11.488Z,0.80
2018-09-25T00:18:44.033Z,0.87
2018-09-25T00:21:17.077Z,1.00
2018-09-25T00:23:49.552Z,0.97
2018-09-25T00:26:22.282Z,0.97
2018-09-25T00:28:54.863Z,1.17
2018-09-25T00:31:27.384Z,0.87
2018-09-25T00:34:00.122Z,1.10
2018-09-25T00:36:32.641Z,1.63
2018-09-25T00:39:05.481Z,1.90
2018-09-25T00:41:38.131Z,1.50
2018-09-25T00:44:10.706Z,1.50
2018-09-25T00:46:43.410Z,1.67
2018-09-25T00:49:16.123Z,1.40
2018-09-25T00:51:48.749Z,1.17
2018-09-25T00:54:21.347Z,1.00
2018-09-25T00:56:54.032Z,1.57
2018-09-25T00:59:26.690Z,1.10
2018-09-25T01:01:59.408Z,1.13
2018-09-25T01:04:31.980Z,1.03
2018-09-25T01:07:04.539Z,1.07
2018-09-25T01:09:37.035Z,1.23
2018-09-25T01:12:09.583Z,1.37
2018-09-25T01:14:42.283Z,1.20
2018-09-25T01:17:14.845Z,1.10
2018-09-25T01:19:47.522Z,1.03
2018-09-25T01:22:20.054Z,1.07
2018-09-25T01:32:01.665Z,1.30
2018-09-25T01:34:34.321Z,1.40
2018-09-25T01:37:06.850Z,1.77
2018-09-25T01:39:39.376Z,1.00
2018-09-25T01:42:11.914Z,1.53
2018-09-25T01:44:44.574Z,1.00
2018-09-25T01:47:17.160Z,1.40
2018-09-25T01:49:49.699Z,1.10
2018-09-25T01:52:22.366Z,1.00
2018-09-25T01:54:54.943Z,1.17
2018-09-25T01:57:27.676Z,1.00
2018-09-25T02:00:00.370Z,1.13
2018-09-25T02:02:33.081Z,0.90
2018-09-25T02:05:05.771Z,1.20
2018-09-25T02:07:38.330Z,1.00
2018-09-25T02:10:11.020Z,0.87
2018-09-25T02:12:43.617Z,1.47
2018-09-25T02:15:16.293Z,1.37
2018-09-25T02:17:48.803Z,1.00
2018-09-25T02:20:21.506Z,1.50
2018-09-25T02:22:54.214Z,1.30
2018-09-25T02:25:26.794Z,1.97
2018-09-25T02:27:59.265Z,2.30
2018-09-25T02:30:31.811Z,1.47
2018-09-25T02:33:04.330Z,1.70
2018-09-25T02:35:36.881Z,1.53
2018-09-25T02:38:09.595Z,1.40
2018-09-25T02:40:42.146Z,1.30
2018-09-25T02:43:14.677Z,1.27
2018-09-25T02:45:47.241Z,1.50
2018-09-25T02:48:19.770Z,1.10
2018-09-25T02:50:52.410Z,1.00
2018-09-25T02:53:24.929Z,1.30
2018-09-25T02:55:57.557Z,1.30
2018-09-25T02:58:30.161Z,1.10
2018-09-25T03:01:02.670Z,1.00
2018-09-25T03:03:35.211Z,1.20
2018-09-25T03:06:08.039Z,1.00
2018-09-25T03:08:40.618Z,0.90
2018-09-25T03:11:13.563Z,0.73
2018-09-25T03:13:46.144Z,0.90
2018-09-25T03:16:18.789Z,1.00
2018-09-25T03:18:51.471Z,1.27
2018-09-25T03:21:23.942Z,1.30
2018-09-25T03:23:56.674Z,1.33
2018-09-25T03:26:29.125Z,0.90
2018-09-25T03:29:01.600Z,1.10
2018-09-25T03:31:34.102Z,1.30
2018-09-25T03:34:06.670Z,1.07
2018-09-25T03:36:39.280Z,1.30
2018-09-25T03:39:12.900Z,1.43
2018-09-25T03:41:45.786Z,1.20
2018-09-25T03:44:18.493Z,2.00
2018-09-25T03:46:51.174Z,1.40
2018-09-25T03:49:23.873Z,1.00
2018-09-25T03:51:56.294Z,1.20
2018-09-25T03:54:28.799Z,1.37
2018-09-25T03:57:01.513Z,1.03
2018-09-25T04:06:43.100Z,1.00
2018-09-25T04:09:15.682Z,1.00
2018-09-25T04:11:48.384Z,1.57
2018-09-25T04:14:21.127Z,1.70
2018-09-25T04:16:53.735Z,1.17
2018-09-25T04:19:26.360Z,1.50
2018-09-25T04:21:58.991Z,1.13
2018-09-25T04:24:31.588Z,1.20
2018-09-25T04:27:04.282Z,1.77
2018-09-25T04:29:37.022Z,1.40
2018-09-25T04:32:09.757Z,3.50
2018-09-25T04:34:42.494Z,1.10
2018-09-25T04:37:15.087Z,1.30
2018-09-25T04:39:47.668Z,1.73
2018-09-25T04:42:20.211Z,1.50
2018-09-25T04:44:52.811Z,1.63
2018-09-25T04:47:25.548Z,2.27
2018-09-25T04:49:58.306Z,1.47
2018-09-25T04:52:31.053Z,1.70
2018-09-25T04:55:04.008Z,2.00
2018-09-25T04:57:36.695Z,2.10
2018-09-25T05:00:09.848Z,1.83
2018-09-25T05:02:42.635Z,1.43
2018-09-25T05:05:15.312Z,1.57
2018-09-25T05:07:48.072Z,1.50
2018-09-25T05:10:20.610Z,2.00
2018-09-25T05:12:54.539Z,1.57
2018-09-25T05:15:27.229Z,1.67
2018-09-25T05:17:59.830Z,1.97
2018-09-25T05:20:32.455Z,1.80
2018-09-25T05:23:04.999Z,2.50
2018-09-25T05:25:37.611Z,1.43
2018-09-25T05:28:10.540Z,2.13
2018-09-25T05:30:43.122Z,1.63
2018-09-25T05:33:15.830Z,1.63
2018-09-25T05:35:48.397Z,1.80
2018-09-25T05:38:21.066Z,1.90
2018-09-25T05:40:53.836Z,2.03
2018-09-25T05:43:26.430Z,1.60
2018-09-25T05:45:59.051Z,2.43
2018-09-25T05:48:31.939Z,1.90
2018-09-25T05:51:04.630Z,2.20
2018-09-25T05:53:37.966Z,2.83
2018-09-25T05:56:10.570Z,4.30
2018-09-25T05:58:43.211Z,3.90
2018-09-25T06:01:16.027Z,4.37
2018-09-25T06:03:48.733Z,4.33
2018-09-25T06:06:21.714Z,4.10
2018-09-25T06:08:54.501Z,3.93
2018-09-25T06:11:27.015Z,4.47
2018-09-25T06:13:59.551Z,4.47
2018-09-25T06:16:32.118Z,4.23
2018-09-25T06:19:04.992Z,5.90
2018-09-25T06:21:37.621Z,4.37
2018-09-25T06:24:10.686Z,3.90
2018-09-25T06:26:43.483Z,4.23
2018-09-25T06:29:16.204Z,4.60
2018-09-25T06:31:49.140Z,4.53
2018-09-25T06:34:21.917Z,5.23
2018-09-25T06:36:54.998Z,5.90
2018-09-25T06:39:27.644Z,4.93
2018-09-25T06:42:00.173Z,5.20
2018-09-25T06:44:33.050Z,5.90
2018-09-25T06:47:05.632Z,4.60
2018-09-25T06:49:38.194Z,5.80
2018-09-25T06:52:10.804Z,4.77
2018-09-25T06:54:43.465Z,5.30
2018-09-25T06:57:16.380Z,4.80
2018-09-25T06:59:49.107Z,4.77
2018-09-25T07:02:21.877Z,4.47
2018-09-25T07:04:54.523Z,4.63
2018-09-25T07:07:27.445Z,4.57
2018-09-25T07:10:00.197Z,5.67
2018-09-25T07:12:32.758Z,4.63
2018-09-25T07:15:05.330Z,5.73
2018-09-25T07:17:37.863Z,5.23
2018-09-25T07:20:10.289Z,5.60
2018-09-25T07:22:43.012Z,4.20
2018-09-25T07:25:15.681Z,4.43
2018-09-25T07:27:48.415Z,4.20
2018-09-25T07:30:21.036Z,5.10
2018-09-25T07:32:53.660Z,4.13
2018-09-25T07:35:26.346Z,3.60
2018-09-25T07:37:59.082Z,4.00
2018-09-25T07:40:31.591Z,4.07
2018-09-25T07:43:04.529Z,3.80
2018-09-25T07:45:37.230Z,4.50
2018-09-25T07:48:09.794Z,3.73
2018-09-25T07:50:42.230Z,3.93
2018-09-25T07:53:15.123Z,4.17
2018-09-25T07:55:47.895Z,4.50
2018-09-25T07:58:20.461Z,3.60
2018-09-25T08:00:53.041Z,3.60
2018-09-25T08:03:25.984Z,3.40
2018-09-25T08:05:58.513Z,3.83
2018-09-25T08:08:31.042Z,3.60
2018-09-25T08:11:03.677Z,3.87
2018-09-25T08:13:36.521Z,3.40
2018-09-25T08:16:09.115Z,4.20
2018-09-25T08:18:41.797Z,4.40
2018-09-25T08:21:14.430Z,3.97
2018-09-25T08:23:46.935Z,3.40
2018-09-25T08:26:19.512Z,3.43
2018-09-25T08:28:52.237Z,3.90
2018-09-25T08:31:24.846Z,3.93
2018-09-25T08:33:57.561Z,3.23
2018-09-25T08:36:30.375Z,3.70
2018-09-25T08:39:02.935Z,3.93
2018-09-25T08:41:35.433Z,3.60
2018-09-25T08:44:08.353Z,3.93
2018-09-25T08:46:41.623Z,4.00
2018-09-25T08:49:14.132Z,3.70
2018-09-25T08:51:46.732Z,4.47
2018-09-25T08:54:19.406Z,4.00
2018-09-25T08:56:52.118Z,3.33
2018-09-25T08:59:24.723Z,3.33
2018-09-25T09:01:57.299Z,3.27
2018-09-25T09:04:30.145Z,3.10
2018-09-25T09:07:03.056Z,2.40
2018-09-25T09:09:35.635Z,2.53
2018-09-25T09:12:08.152Z,2.53
2018-09-25T09:14:40.682Z,2.30
2018-09-25T09:17:14.159Z,2.80
2018-09-25T09:19:46.864Z,2.47
2018-09-25T09:22:19.509Z,2.10
2018-09-25T09:24:52.164Z,1.97
2018-09-25T09:27:24.823Z,2.00
2018-09-25T09:29:57.364Z,2.00
2018-09-25T09:32:30.206Z,2.00
2018-09-25T09:35:02.914Z,2.20
2018-09-25T09:37:35.625Z,2.20
2018-09-25T09:40:08.401Z,1.30
2018-09-25T09:42:40.821Z,1.80
2018-09-25T09:45:14.151Z,1.33
2018-09-25T09:47:46.864Z,1.77
2018-09-25T09:50:19.375Z,1.20
2018-09-25T09:52:52.085Z,1.50
2018-09-25T09:55:24.912Z,1.83
2018-09-25T09:57:57.708Z,1.90
2018-09-25T10:00:30.201Z,1.30
2018-09-25T10:03:03.026Z,1.60
2018-09-25T10:05:35.575Z,1.23
2018-09-25T10:08:08.267Z,1.70
2018-09-25T10:10:40.986Z,1.23
2018-09-25T10:13:13.377Z,1.20
2018-09-25T10:15:46.113Z,1.43
2018-09-25T10:18:18.739Z,1.20
2018-09-25T10:20:51.402Z,1.03
2018-09-25T10:23:24.021Z,1.60
2018-09-25T10:25:56.634Z,1.23
2018-09-25T10:28:29.126Z,1.00
2018-09-25T10:31:01.659Z,1.17
2018-09-25T10:33:34.380Z,1.23
2018-09-25T10:36:06.908Z,1.00
2018-09-25T10:38:39.464Z,1.13
2018-09-25T10:41:11.967Z,1.50
2018-09-25T10:43:44.676Z,1.30
2018-09-25T10:46:17.183Z,1.07
2018-09-25T10:48:49.910Z,1.10
2018-09-25T10:51:22.563Z,1.13
2018-09-25T10:53:55.401Z,1.20
2018-09-25T10:56:27.945Z,1.07
2018-09-25T10:59:00.632Z,1.17
2018-09-25T11:01:33.231Z,1.60
2018-09-25T11:04:06.256Z,1.07
2018-09-25T11:06:38.737Z,0.90
2018-09-25T11:09:13.070Z,1.37
2018-09-25T11:11:45.792Z,1.10
2018-09-25T11:14:18.366Z,1.00
2018-09-25T11:16:51.043Z,1.43
2018-09-25T11:19:23.746Z,0.70
2018-09-25T11:21:56.614Z,0.93
2018-09-25T11:24:29.211Z,0.73
2018-09-25T11:27:01.851Z,0.83
2018-09-25T11:29:34.445Z,1.30
2018-09-25T11:32:07.023Z,0.83
2018-09-25T11:34:39.677Z,0.93
2018-09-25T11:37:12.269Z,0.70
2018-09-25T11:39:44.949Z,0.87
2018-09-25T11:42:17.479Z,0.67
2018-09-25T11:44:50.208Z,0.77
2018-09-25T11:47:22.963Z,1.03
2018-09-25T11:49:55.526Z,0.80
2018-09-25T11:52:28.031Z,0.80
2018-09-25T11:55:00.718Z,1.00
2018-09-25T11:57:33.340Z,1.43
2018-09-25T12:00:06.012Z,0.70
2018-09-25T12:02:38.554Z,0.80
2018-09-25T12:05:11.278Z,0.97
2018-09-25T12:07:43.851Z,0.77
2018-09-25T12:10:16.415Z,0.80
2018-09-25T12:12:48.966Z,1.47
2018-09-25T12:15:21.732Z,1.23
2018-09-25T12:17:54.323Z,0.70
2018-09-25T12:20:26.887Z,1.00
2018-09-25T12:22:59.675Z,1.00
2018-09-25T12:25:32.327Z,1.10
2018-09-25T12:28:04.900Z,1.00
2018-09-25T12:30:37.645Z,1.07
2018-09-25T12:33:13.278Z,1.20
2018-09-25T12:35:45.945Z,0.77
2018-09-25T12:38:18.469Z,0.80
2018-09-25T12:40:51.157Z,1.40
2018-09-25T12:43:23.718Z,1.47
2018-09-25T12:45:56.340Z,0.80
2018-09-25T12:48:29.047Z,0.80
2018-09-25T12:51:01.607Z,1.00
2018-09-25T12:53:35.781Z,0.97
2018-09-25T12:56:09.454Z,0.90
2018-09-25T12:58:42.169Z,1.00
2018-09-25T13:01:14.653Z,1.00
2018-09-25T13:03:47.601Z,1.20
2018-09-25T13:06:20.175Z,1.00
2018-09-25T13:08:53.109Z,1.23
2018-09-25T13:11:25.723Z,0.97
2018-09-25T13:13:58.483Z,0.90
2018-09-25T13:16:31.737Z,0.90
2018-09-25T13:19:04.891Z,1.00
2018-09-25T13:21:37.583Z,0.90
2018-09-25T13:24:10.294Z,1.20
2018-09-25T13:26:42.888Z,1.10
2018-09-25T13:34:12.120Z,1.00
2018-09-25T13:36:44.758Z,0.80
2018-09-25T13:39:17.403Z,0.77
2018-09-25T13:41:50.205Z,0.90
2018-09-25T13:44:22.985Z,1.03
2018-09-25T13:46:55.825Z,1.27
2018-09-25T13:49:28.509Z,1.10
2018-09-25T13:52:01.215Z,1.00
2018-09-25T13:54:33.897Z,1.10
2018-09-25T13:57:06.715Z,1.20
2018-09-25T13:59:39.185Z,0.80
2018-09-25T14:02:11.725Z,1.00
2018-09-25T14:04:44.352Z,0.90
2018-09-25T14:07:16.966Z,1.03
2018-09-25T14:09:49.646Z,1.00
2018-09-25T14:12:22.308Z,0.97
2018-09-25T14:14:55.075Z,1.10
2018-09-25T14:17:27.643Z,0.83
2018-09-25T14:20:00.303Z,1.10
2018-09-25T14:22:32.916Z,0.97
2018-09-25T14:25:05.468Z,0.80
2018-09-25T14:27:38.077Z,1.30
2018-09-25T14:30:10.743Z,0.80
2018-09-25T14:32:43.642Z,0.53
2018-09-25T14:35:16.221Z,0.90
2018-09-25T14:37:49.201Z,0.80
2018-09-25T14:40:21.771Z,0.80
2018-09-25T14:42:54.451Z,1.10
2018-09-25T14:45:27.150Z,1.00
2018-09-25T14:47:59.869Z,0.60
2018-09-25T14:50:32.611Z,0.93
2018-09-25T14:53:05.116Z,1.00
2018-09-25T14:55:37.729Z,0.70
2018-09-25T14:58:10.324Z,1.00
2018-09-25T15:00:42.960Z,0.80
2018-09-25T15:03:15.486Z,0.83
2018-09-25T15:05:48.033Z,1.17
2018-09-25T15:08:20.803Z,1.17
2018-09-25T15:10:53.387Z,1.50
2018-09-25T15:13:26.131Z,1.00
2018-09-25T15:15:58.821Z,1.33
2018-09-25T15:18:31.413Z,1.13
2018-09-25T15:21:04.027Z,1.30
2018-09-25T15:23:36.623Z,1.10
2018-09-25T15:26:09.232Z,0.90
2018-09-25T15:28:41.810Z,1.27
2018-09-25T15:31:14.527Z,1.17
2018-09-25T15:33:47.231Z,1.10
2018-09-25T15:36:19.934Z,0.93
2018-09-25T15:38:54.206Z,0.90
2018-09-25T15:41:27.596Z,0.90
2018-09-25T15:44:00.188Z,1.00
2018-09-25T15:46:32.907Z,1.00
2018-09-25T15:49:05.476Z,0.90
2018-09-25T15:51:38.020Z,1.10
2018-09-25T15:54:10.453Z,0.90
2018-09-25T15:56:43.336Z,0.90
2018-09-25T15:59:15.886Z,0.57
2018-09-25T16:01:48.675Z,1.20
2018-09-25T16:04:21.292Z,0.90
2018-09-25T16:06:53.835Z,0.80
2018-09-25T16:09:26.430Z,1.10
2018-09-25T16:12:08.777Z,0.93
2018-09-25T16:14:41.608Z,0.70
2018-09-25T16:17:14.231Z,0.70
2018-09-25T16:19:48.932Z,0.93
2018-09-25T16:22:21.574Z,0.90
2018-09-25T16:24:54.124Z,0.83
2018-09-25T16:27:26.780Z,0.67
2018-09-25T16:29:59.380Z,1.37
2018-09-25T16:32:32.283Z,1.20
2018-09-25T16:35:05.061Z,1.20
2018-09-25T16:37:38.845Z,0.97
2018-09-25T16:40:11.601Z,1.07
2018-09-25T16:42:44.387Z,0.70
2018-09-25T16:45:17.112Z,0.70
2018-09-25T16:47:49.668Z,0.90
2018-09-25T16:50:22.202Z,0.60
2018-09-25T16:52:54.785Z,0.97
2018-09-25T16:55:31.072Z,1.20
2018-09-25T16:58:03.875Z,1.17
2018-09-25T17:00:36.525Z,0.97
2018-09-25T17:03:09.101Z,1.00
2018-09-25T17:05:41.748Z,0.90
2018-09-25T17:08:14.367Z,0.87
2018-09-25T17:10:47.031Z,1.00
2018-09-25T17:13:19.865Z,0.90
2018-09-25T17:15:52.493Z,1.70
2018-09-25T17:18:25.232Z,1.03
2018-09-25T17:20:57.947Z,1.27
2018-09-25T17:23:30.549Z,1.20
2018-09-25T17:26:03.207Z,1.30
2018-09-25T17:28:35.866Z,1.10
2018-09-25T17:31:08.803Z,1.60
2018-09-25T17:33:41.477Z,1.23
2018-09-25T17:36:14.186Z,1.07
2018-09-25T17:38:46.860Z,0.97
2018-09-25T17:41:19.582Z,1.23
2018-09-25T17:43:52.403Z,2.40
2018-09-25T17:46:25.132Z,2.33
2018-09-25T17:48:57.692Z,1.83
2018-09-25T17:51:30.422Z,1.80
2018-09-25T17:54:03.158Z,1.93
2018-09-25T17:56:35.753Z,1.77
2018-09-25T17:59:08.325Z,1.70
2018-09-25T18:01:41.252Z,1.80
2018-09-25T18:04:13.941Z,1.20
2018-09-25T18:06:46.767Z,1.80
2018-09-25T18:09:19.445Z,1.17
2018-09-25T18:11:52.031Z,1.10
2018-09-25T18:14:24.726Z,1.17
2018-09-25T18:16:57.521Z,1.20
2018-09-25T18:19:30.088Z,1.40
2018-09-25T18:22:02.863Z,1.40
2018-09-25T18:24:35.483Z,1.60
2018-09-25T18:27:08.757Z,1.60
2018-09-25T18:29:41.300Z,1.77
2018-09-25T18:32:14.001Z,1.60
2018-09-25T18:34:46.636Z,1.43
2018-09-25T18:37:19.423Z,1.30
2018-09-25T18:39:52.043Z,1.20
2018-09-25T18:42:24.852Z,1.30
2018-09-25T18:44:57.383Z,1.57
2018-09-25T18:47:30.138Z,1.10
2018-09-25T18:50:02.835Z,1.30
2018-09-25T18:52:35.523Z,1.20
2018-09-25T18:55:08.583Z,1.10
2018-09-25T18:57:41.143Z,1.73
2018-09-25T19:00:13.710Z,1.70
2018-09-25T19:02:46.319Z,1.10
2018-09-25T19:05:19.103Z,1.60
2018-09-25T19:07:51.676Z,1.70
2018-09-25T19:10:24.391Z,1.90
2018-09-25T19:12:57.165Z,1.47
2018-09-25T19:15:35.248Z,1.40
2018-09-25T19:21:09.355Z,1.77
2018-09-25T19:24:01.892Z,1.60
2018-09-25T19:26:39.847Z,1.63
2018-09-25T19:29:19.159Z,1.77
2018-09-25T19:31:54.015Z,1.50
2018-09-25T19:37:36.512Z,1.30
2018-09-25T19:40:12.106Z,1.30
2018-09-25T19:42:45.281Z,2.80
2018-09-25T19:45:18.577Z,2.53
2018-09-25T19:47:58.951Z,1.77
2018-09-25T19:50:47.743Z,2.50
2018-09-25T19:53:22.212Z,2.13
2018-09-25T19:55:55.149Z,2.63
2018-09-25T19:58:30.096Z,2.53
2018-09-25T20:03:43.714Z,1.73
2018-09-25T20:06:18.390Z,1.77
2018-09-25T20:08:51.704Z,1.57
2018-09-25T20:11:27.391Z,2.20
2018-09-25T20:14:00.864Z,1.57
2018-09-25T20:16:33.598Z,1.60
2018-09-25T20:19:06.548Z,1.53
2018-09-25T20:21:39.394Z,2.00
2018-09-25T20:24:12.253Z,2.10
2018-09-25T20:26:44.929Z,1.20
2018-09-25T20:29:17.721Z,1.27
2018-09-25T20:31:50.483Z,1.40
2018-09-25T20:34:23.148Z,2.00
2018-09-25T20:36:55.892Z,2.20
2018-09-25T20:39:30.307Z,1.50
2018-09-25T20:42:03.127Z,2.47
2018-09-25T20:44:36.015Z,1.60
2018-09-25T20:47:08.746Z,1.67
2018-09-25T20:49:41.299Z,1.50
2018-09-25T20:52:14.436Z,1.43
2018-09-25T20:54:47.098Z,1.97
2018-09-25T20:57:19.996Z,1.80
2018-09-25T20:59:53.587Z,2.20
2018-09-25T21:02:26.305Z,1.30
2018-09-25T21:04:59.015Z,1.47
2018-09-25T21:07:31.604Z,1.30
2018-09-25T21:10:04.292Z,1.97
2018-09-25T21:12:36.892Z,1.57
2018-09-25T21:15:09.687Z,1.70
2018-09-25T21:17:42.276Z,1.50
2018-09-25T21:20:14.862Z,1.90
2018-09-25T21:22:48.252Z,1.47
2018-09-25T21:25:20.903Z,1.40
2018-09-25T21:27:53.678Z,1.30
2018-09-25T21:30:26.557Z,1.70
2018-09-25T21:32:59.242Z,2.23
2018-09-25T21:35:32.211Z,1.80
2018-09-25T21:38:04.706Z,1.80
2018-09-25T21:40:37.445Z,1.90
2018-09-25T21:43:10.006Z,2.10
2018-09-25T21:45:42.715Z,1.33
2018-09-25T21:48:15.651Z,1.43
2018-09-25T21:50:48.396Z,1.60
2018-09-25T21:53:21.045Z,1.53
2018-09-25T21:55:53.795Z,2.10
2018-09-25T21:58:26.403Z,1.97
2018-09-25T22:00:58.923Z,1.20
2018-09-25T22:03:31.472Z,1.80
2018-09-25T22:06:03.994Z,2.00
2018-09-25T22:08:36.467Z,1.40
2018-09-25T22:11:09.098Z,1.57
2018-09-25T22:13:42.016Z,1.60
2018-09-25T22:16:14.538Z,1.87
2018-09-25T22:18:47.229Z,1.70
2018-09-25T22:21:19.817Z,1.80
2018-09-25T22:23:52.368Z,1.80
2018-09-25T22:26:25.059Z,1.40
2018-09-25T22:28:57.585Z,1.90
2018-09-25T22:31:30.198Z,1.57
2018-09-25T22:34:02.911Z,1.97
2018-09-25T22:36:35.994Z,1.50
2018-09-25T22:39:08.829Z,3.03
2018-09-25T22:41:41.519Z,1.80
2018-09-25T22:44:14.309Z,1.73
2018-09-25T22:46:47.106Z,1.60
2018-09-25T22:49:19.849Z,1.50
2018-09-25T22:51:52.431Z,1.23
2018-09-25T22:54:24.960Z,1.30
2018-09-25T22:56:57.579Z,1.60
2018-09-25T22:59:30.403Z,1.10
2018-09-25T23:02:03.096Z,1.53
2018-09-25T23:04:35.618Z,1.40
2018-09-25T23:07:08.193Z,1.20
2018-09-25T23:09:40.741Z,1.40
2018-09-25T23:12:13.298Z,1.20
2018-09-25T23:14:46.898Z,1.20
2018-09-25T23:17:19.451Z,1.00
2018-09-25T23:19:52.194Z,1.40
2018-09-25T23:22:24.668Z,1.10
2018-09-25T23:24:57.190Z,1.10
2018-09-25T23:27:29.731Z,1.20
2018-09-25T23:30:02.265Z,1.37
2018-09-25T23:32:34.878Z,1.10
2018-09-25T23:35:07.611Z,1.10
2018-09-25T23:37:40.415Z,1.20
2018-09-25T23:40:44.281Z,1.00
2018-09-25T23:43:19.897Z,1.20
2018-09-25T23:46:55.526Z,1.00
2018-09-25T23:49:27.316Z,0.90
2018-09-25T23:51:58.826Z,0.80
2018-09-25T23:54:31.179Z,1.60
2018-09-25T23:57:06.227Z,1.03
2018-09-25T23:59:39.549Z,0.87
